Time;durP1;ratioP1;P1;durP2;ratioP2;P2;SDS_P1;SDS_P2;PMS_P1;PMS_P2;Temp;Humidity;BMP_temperature;BMP_pressure;BME280_temperature;BME280_humidity;BME280_pressure;Samples;Min_cycle;Max_cycle;Signal;HPM_P1;HPM_P2
2021/12/26 00:02:20;;;;;;;;;;;21.20;33.20;;;;;;4971781;28;20231;-61
2021/12/26 00:04:46;;;;;;;;;;;21.20;33.20;;;;;;4943808;29;19926;-61
2021/12/26 00:07:11;;;;;;;;;;;21.20;33.20;;;;;;4941657;28;19934;-61
2021/12/26 00:09:37;;;;;;;;;;;21.20;33.20;;;;;;4944126;29;19918;-61
2021/12/26 00:12:02;;;;;;;;;;;21.30;33.30;;;;;;4944168;29;19944;-61
2021/12/26 00:14:28;;;;;;;;;;;21.20;33.10;;;;;;4942536;28;23607;-61
2021/12/26 00:16:53;;;;;;;;;;;21.20;33.10;;;;;;4945810;29;20434;-61
2021/12/26 00:19:19;;;;;;;;;;;21.20;33.10;;;;;;4944896;28;19954;-61
2021/12/26 00:21:45;;;;;;;;;;;21.20;33.20;;;;;;4942974;29;19985;-61
2021/12/26 00:24:12;;;;;;;;;;;21.20;33.10;;;;;;4945260;29;21359;-62
2021/12/26 00:26:37;;;;;;;;;;;21.20;33.20;;;;;;4975763;28;19925;-61
2021/12/26 00:29:03;;;;;;;;;;;21.20;33.20;;;;;;4943736;29;19914;-61
2021/12/26 00:31:28;;;;;;;;;;;21.20;33.20;;;;;;4944994;29;20699;-61
2021/12/26 00:33:54;;;;;;;;;;;21.20;33.10;;;;;;4945250;28;19974;-61
2021/12/26 00:36:19;;;;;;;;;;;21.20;33.10;;;;;;4943250;28;19925;-61
2021/12/26 00:38:45;;;;;;;;;;;21.20;33.20;;;;;;4942951;28;19954;-61
2021/12/26 00:41:10;;;;;;;;;;;21.20;33.10;;;;;;4944896;29;20371;-62
2021/12/26 00:43:36;;;;;;;;;;;21.20;33.10;;;;;;4946412;29;19957;-61
2021/12/26 00:46:01;;;;;;;;;;;21.20;33.10;;;;;;4948243;29;19915;-62
2021/12/26 00:48:27;;;;;;;;;;;21.20;33.20;;;;;;4948145;29;20245;-61
2021/12/26 00:50:52;;;;;;;;;;;21.10;33.20;;;;;;4946658;29;20380;-62
2021/12/26 00:53:17;;;;;;;;;;;21.20;33.20;;;;;;4948812;29;19918;-61
2021/12/26 00:55:43;;;;;;;;;;;21.20;33.10;;;;;;4947005;28;19957;-61
2021/12/26 00:58:08;;;;;;;;;;;21.20;33.10;;;;;;4977210;28;19925;-61
2021/12/26 01:00:35;;;;;;;;;;;21.20;33.00;;;;;;4948237;29;19940;-61
2021/12/26 01:03:01;;;;;;;;;;;21.20;33.00;;;;;;4947190;29;19969;-61
2021/12/26 01:05:27;;;;;;;;;;;21.20;33.00;;;;;;4943745;28;19914;-61
2021/12/26 01:10:22;;;;;;;;;;;21.20;32.90;;;;;;4947118;29;20002;-61
2021/12/26 01:12:47;;;;;;;;;;;21.20;32.90;;;;;;4942018;28;19914;-62
2021/12/26 01:15:13;;;;;;;;;;;21.30;32.90;;;;;;4947330;29;19921;-62
2021/12/26 01:17:40;;;;;;;;;;;21.20;32.80;;;;;;4946598;29;20171;-62
2021/12/26 01:20:09;;;;;;;;;;;21.30;32.80;;;;;;4946801;28;19918;-62
2021/12/26 01:22:34;;;;;;;;;;;21.20;32.80;;;;;;4944700;29;20379;-62
2021/12/26 01:25:00;;;;;;;;;;;21.20;32.80;;;;;;4946615;29;19923;-62
2021/12/26 01:27:25;;;;;;;;;;;21.20;32.90;;;;;;4946076;29;19946;-61
2021/12/26 01:29:51;;;;;;;;;;;21.20;32.80;;;;;;4943945;28;19914;-61
2021/12/26 01:32:17;;;;;;;;;;;21.20;32.90;;;;;;4946031;29;19933;-62
2021/12/26 01:34:43;;;;;;;;;;;21.20;32.90;;;;;;4978266;28;19985;-61
2021/12/26 01:37:09;;;;;;;;;;;21.20;32.90;;;;;;4946728;29;20399;-62
2021/12/26 01:39:34;;;;;;;;;;;21.20;32.80;;;;;;4946320;28;19965;-61
2021/12/26 01:42:02;;;;;;;;;;;21.20;32.80;;;;;;4947714;28;19926;-61
2021/12/26 01:44:28;;;;;;;;;;;21.20;32.80;;;;;;4946215;28;19915;-61
2021/12/26 01:46:54;;;;;;;;;;;21.20;32.80;;;;;;4945162;28;19954;-61
2021/12/26 01:49:20;;;;;;;;;;;21.20;32.80;;;;;;4947778;29;20009;-62
2021/12/26 01:51:46;;;;;;;;;;;21.20;32.80;;;;;;4943967;28;19982;-61
2021/12/26 01:54:12;;;;;;;;;;;21.20;32.80;;;;;;4974963;28;20374;-61
2021/12/26 01:56:38;;;;;;;;;;;21.20;32.80;;;;;;4954085;28;19936;-62
2021/12/26 01:59:04;;;;;;;;;;;21.20;32.80;;;;;;4954386;28;19922;-61
2021/12/26 02:01:30;;;;;;;;;;;21.20;32.80;;;;;;4977035;28;20066;-61
2021/12/26 02:03:55;;;;;;;;;;;21.20;32.70;;;;;;4939317;28;20382;-61
2021/12/26 02:06:21;;;;;;;;;;;21.20;32.80;;;;;;4946664;29;20590;-61
2021/12/26 02:08:47;;;;;;;;;;;21.10;32.70;;;;;;4943955;28;20410;-61
2021/12/26 02:11:13;;;;;;;;;;;21.10;32.70;;;;;;4944495;28;19918;-61
2021/12/26 02:13:38;;;;;;;;;;;21.10;32.60;;;;;;4973430;28;19930;-62
2021/12/26 02:16:05;;;;;;;;;;;21.10;32.70;;;;;;4973558;28;19921;-61
2021/12/26 02:18:30;;;;;;;;;;;21.10;32.70;;;;;;4973064;28;19945;-61
2021/12/26 02:23:43;;;;;;;;;;;21.10;32.80;;;;;;4952851;28;20010;-61
2021/12/26 02:28:37;;;;;;;;;;;21.10;32.70;;;;;;4940931;28;19915;-62
2021/12/26 02:31:03;;;;;;;;;;;21.10;32.70;;;;;;4944069;28;19919;-61
2021/12/26 02:33:28;;;;;;;;;;;21.10;32.70;;;;;;4943281;28;20267;-61
2021/12/26 02:35:54;;;;;;;;;;;21.10;32.60;;;;;;4943467;29;19914;-62
2021/12/26 02:38:19;;;;;;;;;;;21.10;32.60;;;;;;4943079;28;20001;-61
2021/12/26 02:40:47;;;;;;;;;;;21.10;32.60;;;;;;4939815;28;19914;-62
2021/12/26 02:43:14;;;;;;;;;;;21.10;32.60;;;;;;4959822;28;20366;-61
2021/12/26 02:45:40;;;;;;;;;;;21.10;32.60;;;;;;4944189;28;19972;-61
2021/12/26 02:48:06;;;;;;;;;;;21.00;32.70;;;;;;4942608;29;19957;-61
2021/12/26 02:50:32;;;;;;;;;;;20.90;32.90;;;;;;4943038;28;20700;-61
2021/12/26 02:52:59;;;;;;;;;;;20.80;32.90;;;;;;4958895;28;20010;-61
2021/12/26 02:55:24;;;;;;;;;;;20.80;32.90;;;;;;4978342;28;19918;-62
2021/12/26 02:57:50;;;;;;;;;;;20.80;32.80;;;;;;4945661;29;19926;-61
2021/12/26 03:00:16;;;;;;;;;;;20.90;32.90;;;;;;4959388;28;20291;-61
2021/12/26 03:02:45;;;;;;;;;;;20.90;32.90;;;;;;4943321;29;20027;-61
2021/12/26 03:05:11;;;;;;;;;;;20.90;32.80;;;;;;4942777;28;20473;-62
2021/12/26 03:07:37;;;;;;;;;;;20.90;32.80;;;;;;4945049;29;19923;-61
2021/12/26 03:10:03;;;;;;;;;;;20.90;32.80;;;;;;4946494;28;19914;-61
2021/12/26 03:12:31;;;;;;;;;;;21.00;32.80;;;;;;4941382;29;19926;-62
2021/12/26 03:14:56;;;;;;;;;;;21.00;32.70;;;;;;4944999;28;19958;-61
2021/12/26 03:17:22;;;;;;;;;;;21.00;32.70;;;;;;4944848;29;20328;-61
2021/12/26 03:19:47;;;;;;;;;;;21.00;32.60;;;;;;4941293;29;19966;-61
2021/12/26 03:22:14;;;;;;;;;;;21.00;32.60;;;;;;4943094;29;19920;-62
2021/12/26 03:24:42;;;;;;;;;;;21.00;32.60;;;;;;4941997;29;20260;-61
2021/12/26 03:27:07;;;;;;;;;;;21.00;32.50;;;;;;4942085;28;20387;-61
2021/12/26 03:29:32;;;;;;;;;;;21.00;32.50;;;;;;4943554;29;19911;-61
2021/12/26 03:31:58;;;;;;;;;;;21.00;32.50;;;;;;4940338;29;19933;-61
2021/12/26 03:34:23;;;;;;;;;;;21.00;32.50;;;;;;4944067;29;19914;-61
2021/12/26 03:36:52;;;;;;;;;;;21.00;32.50;;;;;;4943680;29;20395;-61
2021/12/26 03:39:18;;;;;;;;;;;21.00;32.50;;;;;;4943387;29;19915;-61
2021/12/26 03:41:43;;;;;;;;;;;21.00;32.50;;;;;;4942088;28;19914;-61
2021/12/26 03:44:08;;;;;;;;;;;21.00;32.50;;;;;;4975623;28;19958;-61
2021/12/26 03:46:34;;;;;;;;;;;21.00;32.60;;;;;;4945459;29;19915;-61
2021/12/26 03:49:04;;;;;;;;;;;21.00;32.50;;;;;;4944893;29;20382;-62
2021/12/26 03:51:29;;;;;;;;;;;21.00;32.50;;;;;;4972642;28;19931;-61
2021/12/26 03:53:55;;;;;;;;;;;21.00;32.50;;;;;;4943556;29;20459;-61
2021/12/26 03:56:20;;;;;;;;;;;21.00;33.20;;;;;;4943511;29;20005;-61
2021/12/26 03:58:46;;;;;;;;;;;21.00;32.40;;;;;;4945891;29;19915;-61
2021/12/26 04:01:11;;;;;;;;;;;21.00;32.40;;;;;;4943485;29;19921;-61
2021/12/26 04:03:37;;;;;;;;;;;21.00;32.40;;;;;;4943711;29;19922;-61
2021/12/26 04:06:02;;;;;;;;;;;21.00;32.40;;;;;;4942666;29;19946;-61
2021/12/26 04:08:28;;;;;;;;;;;21.00;32.40;;;;;;4945573;28;19981;-61
2021/12/26 04:10:53;;;;;;;;;;;21.00;32.40;;;;;;4942762;29;20057;-62
2021/12/26 04:13:19;;;;;;;;;;;21.00;32.50;;;;;;4943908;28;19927;-61
2021/12/26 04:15:44;;;;;;;;;;;21.00;32.40;;;;;;4944463;28;19915;-61
2021/12/26 04:18:10;;;;;;;;;;;20.90;32.40;;;;;;4977751;28;19919;-61
2021/12/26 04:20:35;;;;;;;;;;;21.00;32.40;;;;;;4948909;29;19922;-61
2021/12/26 04:23:01;;;;;;;;;;;20.90;32.30;;;;;;4945514;28;20386;-61
2021/12/26 04:25:27;;;;;;;;;;;20.90;32.50;;;;;;4947153;29;19915;-61
2021/12/26 04:27:53;;;;;;;;;;;20.80;32.70;;;;;;4943843;28;20017;-62
2021/12/26 04:30:18;;;;;;;;;;;20.70;32.70;;;;;;4974585;28;20049;-62
2021/12/26 04:32:44;;;;;;;;;;;20.60;32.70;;;;;;4937467;29;20395;-61
2021/12/26 04:35:09;;;;;;;;;;;20.60;32.80;;;;;;4970109;28;20000;-61
2021/12/26 04:37:35;;;;;;;;;;;20.60;32.70;;;;;;4955505;29;20245;-61
2021/12/26 04:40:01;;;;;;;;;;;20.70;32.70;;;;;;4947219;29;20375;-62
2021/12/26 04:42:27;;;;;;;;;;;20.70;32.60;;;;;;4979377;28;19915;-61
2021/12/26 04:44:53;;;;;;;;;;;20.80;32.60;;;;;;4945865;29;19915;-61
2021/12/26 04:47:19;;;;;;;;;;;20.80;32.60;;;;;;4954626;29;20382;-61
2021/12/26 04:49:44;;;;;;;;;;;20.90;32.50;;;;;;4938652;28;19922;-61
2021/12/26 04:52:10;;;;;;;;;;;20.90;32.30;;;;;;4948680;28;20387;-61
2021/12/26 04:54:35;;;;;;;;;;;20.90;32.30;;;;;;4947187;29;19977;-61
2021/12/26 04:57:00;;;;;;;;;;;20.90;32.20;;;;;;4946342;28;19921;-61
2021/12/26 04:59:26;;;;;;;;;;;21.00;32.40;;;;;;4944998;28;20417;-61
2021/12/26 05:01:53;;;;;;;;;;;20.90;32.20;;;;;;4949364;29;20430;-62
2021/12/26 05:04:18;;;;;;;;;;;20.90;32.20;;;;;;4945361;29;20206;-62
2021/12/26 05:06:44;;;;;;;;;;;20.90;32.30;;;;;;4979034;28;19921;-61
2021/12/26 05:09:09;;;;;;;;;;;20.90;32.20;;;;;;4968461;28;19945;-61
2021/12/26 05:11:37;;;;;;;;;;;20.90;32.30;;;;;;4955440;28;19926;-61
2021/12/26 05:14:02;;;;;;;;;;;20.90;32.30;;;;;;4938582;28;20112;-61
2021/12/26 05:16:28;;;;;;;;;;;20.90;32.20;;;;;;4951159;29;19969;-61
2021/12/26 05:18:53;;;;;;;;;;;20.90;32.20;;;;;;4935978;29;19919;-61
2021/12/26 05:21:20;;;;;;;;;;;20.90;32.20;;;;;;4940506;29;19923;-61
2021/12/26 05:23:45;;;;;;;;;;;20.90;32.30;;;;;;4936492;28;20371;-61
2021/12/26 05:26:11;;;;;;;;;;;20.80;32.20;;;;;;4941016;28;20618;-62
2021/12/26 05:28:36;;;;;;;;;;;20.80;32.20;;;;;;4951641;29;19914;-61
2021/12/26 05:31:02;;;;;;;;;;;20.90;32.20;;;;;;4951045;29;19973;-61
2021/12/26 05:33:27;;;;;;;;;;;20.80;32.20;;;;;;4953319;29;20425;-61
2021/12/26 05:35:53;;;;;;;;;;;20.80;32.20;;;;;;4942565;29;19914;-61
2021/12/26 05:38:18;;;;;;;;;;;20.90;32.30;;;;;;4935794;29;20338;-61
2021/12/26 05:40:44;;;;;;;;;;;20.90;32.20;;;;;;4949354;28;19918;-61
2021/12/26 05:43:09;;;;;;;;;;;20.90;32.10;;;;;;4940938;29;20247;-61
2021/12/26 05:45:34;;;;;;;;;;;20.90;32.10;;;;;;4942600;29;20009;-61
2021/12/26 05:48:00;;;;;;;;;;;20.90;32.10;;;;;;4935464;29;19938;-61
2021/12/26 05:50:26;;;;;;;;;;;20.90;32.10;;;;;;4946022;28;19922;-61
2021/12/26 05:52:51;;;;;;;;;;;20.90;32.00;;;;;;4935581;29;20299;-61
2021/12/26 05:55:17;;;;;;;;;;;20.90;32.00;;;;;;4938957;28;20295;-61
2021/12/26 05:57:42;;;;;;;;;;;20.90;31.90;;;;;;4935905;29;19915;-61
2021/12/26 06:00:09;;;;;;;;;;;20.90;32.00;;;;;;4950338;29;19915;-61
2021/12/26 06:02:34;;;;;;;;;;;20.90;32.00;;;;;;4942247;28;20547;-61
2021/12/26 06:05:00;;;;;;;;;;;20.90;32.00;;;;;;4938278;29;19922;-61
2021/12/26 06:07:26;;;;;;;;;;;20.90;32.00;;;;;;4947505;28;20769;-61
2021/12/26 06:09:51;;;;;;;;;;;20.90;32.00;;;;;;4941705;29;19987;-61
2021/12/26 06:12:16;;;;;;;;;;;20.90;32.00;;;;;;4948917;28;19915;-61
2021/12/26 06:14:42;;;;;;;;;;;20.90;32.00;;;;;;4953367;29;19914;-61
2021/12/26 06:17:08;;;;;;;;;;;20.90;32.00;;;;;;4950835;29;19952;-62
2021/12/26 06:19:34;;;;;;;;;;;20.80;31.90;;;;;;4935574;29;20022;-61
2021/12/26 06:21:59;;;;;;;;;;;20.90;32.00;;;;;;4935914;29;20449;-61
2021/12/26 06:24:25;;;;;;;;;;;20.90;32.10;;;;;;4968884;28;20405;-61
2021/12/26 06:26:50;;;;;;;;;;;20.80;32.00;;;;;;4942891;28;19921;-61
2021/12/26 06:29:16;;;;;;;;;;;20.90;32.00;;;;;;4946695;28;19914;-61
2021/12/26 06:31:41;;;;;;;;;;;20.90;32.00;;;;;;4953014;29;19950;-61
2021/12/26 06:34:06;;;;;;;;;;;20.80;32.00;;;;;;4949809;29;19915;-61
2021/12/26 06:36:32;;;;;;;;;;;20.80;32.00;;;;;;4944850;28;19922;-61
2021/12/26 06:38:57;;;;;;;;;;;20.80;32.10;;;;;;4946406;28;19934;-61
2021/12/26 06:41:25;;;;;;;;;;;20.80;31.90;;;;;;4947041;28;20375;-61
2021/12/26 06:43:50;;;;;;;;;;;20.80;31.90;;;;;;4944901;29;19922;-61
2021/12/26 06:46:16;;;;;;;;;;;20.80;31.90;;;;;;4948574;28;19917;-61
2021/12/26 06:48:41;;;;;;;;;;;20.90;31.90;;;;;;4952247;29;19970;-63
2021/12/26 06:51:07;;;;;;;;;;;20.90;31.90;;;;;;4942663;28;19977;-61
2021/12/26 06:53:32;;;;;;;;;;;20.90;31.90;;;;;;4975631;28;19923;-61
2021/12/26 06:55:58;;;;;;;;;;;20.90;31.80;;;;;;4977266;28;19929;-61
2021/12/26 06:58:23;;;;;;;;;;;20.90;31.80;;;;;;4941660;29;19937;-61
2021/12/26 07:00:49;;;;;;;;;;;20.90;31.80;;;;;;4941330;29;19966;-62
2021/12/26 07:03:14;;;;;;;;;;;20.80;31.70;;;;;;4948689;28;19965;-62
2021/12/26 07:05:40;;;;;;;;;;;20.80;31.80;;;;;;4946770;28;20406;-61
2021/12/26 07:08:05;;;;;;;;;;;20.80;31.70;;;;;;4953092;29;20339;-61
2021/12/26 07:10:31;;;;;;;;;;;20.80;31.70;;;;;;4944537;28;19953;-61
2021/12/26 07:12:56;;;;;;;;;;;20.80;31.80;;;;;;4945997;29;19941;-61
2021/12/26 07:15:22;;;;;;;;;;;20.80;31.90;;;;;;4944740;29;22235;-61
2021/12/26 07:17:47;;;;;;;;;;;20.80;31.90;;;;;;4944549;29;19926;-62
2021/12/26 07:20:14;;;;;;;;;;;20.80;31.80;;;;;;4937776;29;20017;-61
2021/12/26 07:22:39;;;;;;;;;;;20.80;31.90;;;;;;4945619;28;19929;-61
2021/12/26 07:25:05;;;;;;;;;;;20.80;31.90;;;;;;4977532;28;19923;-61
2021/12/26 07:27:31;;;;;;;;;;;20.80;32.50;;;;;;4964270;28;20451;-61
2021/12/26 07:29:58;;;;;;;;;;;20.80;31.80;;;;;;4947331;29;19958;-61
2021/12/26 07:32:24;;;;;;;;;;;20.80;31.90;;;;;;4949350;28;19918;-61
2021/12/26 07:34:49;;;;;;;;;;;20.80;31.90;;;;;;4949037;28;20330;-61
2021/12/26 07:37:15;;;;;;;;;;;20.80;31.90;;;;;;4932973;28;19911;-61
2021/12/26 07:39:40;;;;;;;;;;;20.70;31.80;;;;;;4949448;29;19915;-61
2021/12/26 07:42:06;;;;;;;;;;;20.80;31.80;;;;;;4952032;29;19922;-61
2021/12/26 07:44:31;;;;;;;;;;;20.80;31.70;;;;;;4951516;28;19922;-61
2021/12/26 07:46:57;;;;;;;;;;;20.80;31.70;;;;;;4952194;29;19910;-61
2021/12/26 07:49:22;;;;;;;;;;;20.80;31.70;;;;;;4948818;29;20022;-61
2021/12/26 07:51:49;;;;;;;;;;;20.80;31.60;;;;;;4951116;29;20403;-61
2021/12/26 07:54:15;;;;;;;;;;;20.80;31.60;;;;;;4952409;28;19925;-61
2021/12/26 07:56:41;;;;;;;;;;;20.80;31.60;;;;;;4951232;29;19937;-61
2021/12/26 07:59:06;;;;;;;;;;;20.80;31.50;;;;;;4968118;28;19915;-62
2021/12/26 08:01:32;;;;;;;;;;;20.80;31.50;;;;;;4948941;29;20298;-62
2021/12/26 08:04:00;;;;;;;;;;;20.80;31.60;;;;;;4953579;29;19930;-61
2021/12/26 08:06:26;;;;;;;;;;;20.80;31.60;;;;;;4950187;28;20009;-62
2021/12/26 08:08:51;;;;;;;;;;;20.80;31.60;;;;;;4933352;28;20025;-61
2021/12/26 08:11:17;;;;;;;;;;;20.80;31.60;;;;;;4943411;28;19926;-61
2021/12/26 08:13:42;;;;;;;;;;;20.80;31.60;;;;;;4943559;29;19934;-62
2021/12/26 08:16:08;;;;;;;;;;;20.80;31.60;;;;;;4944038;29;20216;-61
2021/12/26 08:18:33;;;;;;;;;;;20.80;31.60;;;;;;4938812;29;19919;-61
2021/12/26 08:20:59;;;;;;;;;;;20.80;31.60;;;;;;4943311;29;19922;-61
2021/12/26 08:23:24;;;;;;;;;;;20.80;31.60;;;;;;4958679;28;20350;-61
2021/12/26 08:25:50;;;;;;;;;;;20.80;31.60;;;;;;4941522;29;19915;-61
2021/12/26 08:28:15;;;;;;;;;;;20.80;31.60;;;;;;4942914;29;19915;-61
2021/12/26 08:30:41;;;;;;;;;;;20.80;31.60;;;;;;4942939;28;19925;-61
2021/12/26 08:33:07;;;;;;;;;;;20.80;31.60;;;;;;4941144;28;20727;-61
2021/12/26 08:35:33;;;;;;;;;;;20.80;31.60;;;;;;4946407;28;19981;-61
2021/12/26 08:37:58;;;;;;;;;;;20.80;31.50;;;;;;4973165;28;19919;-61
2021/12/26 08:40:24;;;;;;;;;;;20.80;31.50;;;;;;4943575;28;19918;-61
2021/12/26 08:42:49;;;;;;;;;;;20.80;31.40;;;;;;4945816;28;19919;-61
2021/12/26 08:45:15;;;;;;;;;;;20.80;31.50;;;;;;4938846;29;20394;-61
2021/12/26 08:47:40;;;;;;;;;;;20.80;31.40;;;;;;4943434;29;20356;-61
2021/12/26 08:50:06;;;;;;;;;;;20.80;31.50;;;;;;4945726;29;19915;-61
2021/12/26 08:52:32;;;;;;;;;;;20.80;31.60;;;;;;4943871;29;19919;-61
2021/12/26 08:54:57;;;;;;;;;;;20.80;31.60;;;;;;4944022;29;19985;-61
2021/12/26 08:57:23;;;;;;;;;;;20.80;31.50;;;;;;4944782;29;19914;-62
2021/12/26 08:59:48;;;;;;;;;;;20.80;31.50;;;;;;4944078;28;19923;-62
2021/12/26 09:02:13;;;;;;;;;;;20.80;31.40;;;;;;4946391;29;19922;-62
2021/12/26 09:04:39;;;;;;;;;;;20.70;31.50;;;;;;4943647;29;19922;-60
2021/12/26 09:07:05;;;;;;;;;;;20.80;31.50;;;;;;4945219;29;20576;-61
2021/12/26 09:09:30;;;;;;;;;;;20.70;31.50;;;;;;4946269;29;20000;-61
2021/12/26 09:11:56;;;;;;;;;;;20.70;31.60;;;;;;4941150;29;19925;-61
2021/12/26 09:14:22;;;;;;;;;;;20.80;31.60;;;;;;4977555;28;20217;-61
2021/12/26 09:16:47;;;;;;;;;;;20.80;31.50;;;;;;4947973;28;19915;-61
2021/12/26 09:19:13;;;;;;;;;;;20.80;31.60;;;;;;4947220;29;20469;-62
2021/12/26 09:21:38;;;;;;;;;;;20.80;31.60;;;;;;4960244;28;20005;-61
2021/12/26 09:24:04;;;;;;;;;;;20.80;31.60;;;;;;4948659;29;19918;-61
2021/12/26 09:26:29;;;;;;;;;;;20.80;31.50;;;;;;4977731;28;19925;-61
2021/12/26 09:28:55;;;;;;;;;;;20.80;31.50;;;;;;4946115;29;20088;-61
2021/12/26 09:31:20;;;;;;;;;;;20.80;31.60;;;;;;4947092;28;19954;-61
2021/12/26 09:33:46;;;;;;;;;;;20.80;31.60;;;;;;4942742;29;19915;-61
2021/12/26 09:36:11;;;;;;;;;;;20.80;31.60;;;;;;4946059;29;19915;-61
2021/12/26 09:38:37;;;;;;;;;;;20.80;31.50;;;;;;4948090;28;19914;-62
2021/12/26 09:41:02;;;;;;;;;;;20.80;31.60;;;;;;4946813;29;19926;-61
2021/12/26 09:43:28;;;;;;;;;;;20.80;31.50;;;;;;4945873;29;19915;-63
2021/12/26 09:45:53;;;;;;;;;;;20.80;31.50;;;;;;4947993;28;19941;-60
2021/12/26 09:48:19;;;;;;;;;;;20.80;31.70;;;;;;4944588;29;19919;-61
2021/12/26 09:50:44;;;;;;;;;;;20.70;31.60;;;;;;4945913;29;20298;-61
2021/12/26 09:53:10;;;;;;;;;;;20.80;31.60;;;;;;4947680;28;20426;-61
2021/12/26 09:55:35;;;;;;;;;;;20.80;31.60;;;;;;4946196;29;19921;-61
2021/12/26 09:58:01;;;;;;;;;;;20.80;31.60;;;;;;4945175;29;19958;-61
2021/12/26 10:00:28;;;;;;;;;;;20.80;31.60;;;;;;4978177;28;19914;-61
2021/12/26 10:03:12;;;;;;;;;;;20.80;31.60;;;;;;4945463;28;19932;-62
2021/12/26 10:05:56;;;;;;;;;;;20.80;31.60;;;;;;4975821;28;19915;-61
2021/12/26 10:08:22;;;;;;;;;;;20.80;31.60;;;;;;4945611;28;20009;-62
2021/12/26 10:11:26;;;;;;;;;;;20.80;32.20;;;;;;4944434;28;19977;-61
2021/12/26 10:13:53;;;;;;;;;;;20.80;31.50;;;;;;4952002;29;20013;-61
2021/12/26 10:16:19;;;;;;;;;;;20.80;31.60;;;;;;4951323;29;19911;-62
2021/12/26 10:18:45;;;;;;;;;;;20.80;31.50;;;;;;4952710;29;20041;-61
2021/12/26 10:21:21;;;;;;;;;;;20.80;31.60;;;;;;4968424;28;19911;-61
2021/12/26 10:23:47;;;;;;;;;;;20.80;31.60;;;;;;4948650;28;19922;-61
2021/12/26 10:26:19;;;;;;;;;;;20.80;31.60;;;;;;4953971;29;20391;-61
2021/12/26 10:29:02;;;;;;;;;;;20.80;31.60;;;;;;4954314;28;19921;-61
2021/12/26 10:31:27;;;;;;;;;;;20.80;31.60;;;;;;4954520;28;19937;-61
2021/12/26 10:33:53;;;;;;;;;;;20.80;31.60;;;;;;4955057;29;20367;-61
2021/12/26 10:36:18;;;;;;;;;;;20.80;31.60;;;;;;4953885;29;20386;-61
2021/12/26 10:38:45;;;;;;;;;;;20.70;31.60;;;;;;4984604;28;20362;-61
2021/12/26 10:41:22;;;;;;;;;;;20.80;31.70;;;;;;4986009;28;20410;-61
2021/12/26 10:43:48;;;;;;;;;;;20.80;31.60;;;;;;4984532;28;19915;-61
2021/12/26 10:46:14;;;;;;;;;;;20.80;31.60;;;;;;4973525;28;19925;-61
2021/12/26 10:48:39;;;;;;;;;;;20.80;31.60;;;;;;4954944;28;20021;-61
2021/12/26 10:51:04;;;;;;;;;;;20.80;31.60;;;;;;4937301;28;19959;-61
2021/12/26 10:53:30;;;;;;;;;;;20.80;31.80;;;;;;4949083;29;19919;-61
2021/12/26 10:55:55;;;;;;;;;;;20.80;31.90;;;;;;4953008;28;19915;-60
2021/12/26 10:58:21;;;;;;;;;;;20.80;31.90;;;;;;4950994;29;19921;-62
2021/12/26 11:00:48;;;;;;;;;;;20.80;31.80;;;;;;4953860;28;20371;-61
2021/12/26 11:03:17;;;;;;;;;;;20.70;32.10;;;;;;4953766;28;19917;-62
2021/12/26 11:05:44;;;;;;;;;;;20.60;32.30;;;;;;4952410;28;19922;-61
2021/12/26 11:08:30;;;;;;;;;;;20.50;32.40;;;;;;4953016;28;19927;-61
2021/12/26 11:10:56;;;;;;;;;;;20.40;32.40;;;;;;4952880;28;19973;-61
2021/12/26 11:13:22;;;;;;;;;;;20.40;32.50;;;;;;4953136;29;20351;-60
2021/12/26 11:15:48;;;;;;;;;;;20.40;32.60;;;;;;4953467;29;19922;-61
2021/12/26 11:18:17;;;;;;;;;;;20.40;32.80;;;;;;4953434;29;19961;-62
2021/12/26 11:20:43;;;;;;;;;;;20.40;32.70;;;;;;4983172;28;19961;-61
2021/12/26 11:23:10;;;;;;;;;;;20.40;33.40;;;;;;4951440;28;20343;-61
2021/12/26 11:25:39;;;;;;;;;;;20.40;32.90;;;;;;4953603;29;19958;-61
2021/12/26 11:28:04;;;;;;;;;;;20.40;32.80;;;;;;4952632;28;20334;-62
2021/12/26 11:30:30;;;;;;;;;;;20.40;32.80;;;;;;4948951;29;20021;-61
2021/12/26 11:32:55;;;;;;;;;;;20.40;32.80;;;;;;4952700;29;19925;-61
2021/12/26 11:35:20;;;;;;;;;;;20.40;32.70;;;;;;4952718;29;19922;-61
2021/12/26 11:37:46;;;;;;;;;;;20.40;32.70;;;;;;4952214;29;21687;-61
2021/12/26 11:40:12;;;;;;;;;;;20.40;32.90;;;;;;4951922;28;19914;-61
2021/12/26 11:42:56;;;;;;;;;;;20.40;32.90;;;;;;4982958;28;20470;-61
2021/12/26 11:45:27;;;;;;;;;;;20.40;33.40;;;;;;4951780;29;19965;-61
2021/12/26 11:47:59;;;;;;;;;;;20.40;33.80;;;;;;4951521;29;20017;-61
2021/12/26 11:50:43;;;;;;;;;;;20.30;33.70;;;;;;4982672;28;19918;-61
2021/12/26 11:53:18;;;;;;;;;;;20.40;33.80;;;;;;4952504;29;20457;-61
2021/12/26 11:55:46;;;;;;;;;;;20.40;33.80;;;;;;4952983;29;19910;-61
2021/12/26 11:58:19;;;;;;;;;;;20.40;33.80;;;;;;4951644;28;19914;-61
2021/12/26 12:00:49;;;;;;;;;;;20.40;33.80;;;;;;4961530;28;19918;-60
2021/12/26 12:03:18;;;;;;;;;;;20.40;33.80;;;;;;4936923;29;19923;-62
2021/12/26 12:05:44;;;;;;;;;;;20.40;33.80;;;;;;4951022;29;20379;-61
2021/12/26 12:08:11;;;;;;;;;;;20.40;33.80;;;;;;4951236;28;20069;-60
2021/12/26 12:10:42;;;;;;;;;;;20.50;33.90;;;;;;4983112;28;20510;-62
2021/12/26 12:13:28;;;;;;;;;;;20.60;33.90;;;;;;4951886;29;19919;-62
2021/12/26 12:15:57;;;;;;;;;;;20.70;33.70;;;;;;4946292;28;19921;-60
2021/12/26 12:18:24;;;;;;;;;;;20.80;33.50;;;;;;4981784;28;20013;-60
2021/12/26 12:21:08;;;;;;;;;;;20.80;33.70;;;;;;4952183;28;19923;-61
2021/12/26 12:23:33;;;;;;;;;;;20.80;33.50;;;;;;4952501;28;19914;-62
2021/12/26 12:25:59;;;;;;;;;;;20.90;33.30;;;;;;4952303;28;19926;-61
2021/12/26 12:28:26;;;;;;;;;;;20.90;33.20;;;;;;4952518;29;19961;-61
2021/12/26 12:30:58;;;;;;;;;;;20.90;33.20;;;;;;4951368;28;20390;-61
2021/12/26 12:33:28;;;;;;;;;;;20.90;33.20;;;;;;4980937;28;19920;-61
2021/12/26 12:35:55;;;;;;;;;;;20.80;33.50;;;;;;4954850;28;19915;-61
2021/12/26 12:38:22;;;;;;;;;;;20.80;33.60;;;;;;4955139;28;19926;-61
2021/12/26 12:40:47;;;;;;;;;;;20.70;33.70;;;;;;4955050;28;20054;-61
2021/12/26 12:43:15;;;;;;;;;;;20.70;33.70;;;;;;4986990;28;19965;-59
2021/12/26 12:46:04;;;;;;;;;;;20.60;33.90;;;;;;4953747;29;19926;-60
2021/12/26 12:48:30;;;;;;;;;;;20.50;33.90;;;;;;4985407;28;19925;-60
2021/12/26 12:50:56;;;;;;;;;;;20.50;35.00;;;;;;4948089;28;19945;-61
2021/12/26 12:53:39;;;;;;;;;;;20.40;34.50;;;;;;4956399;29;20392;-60
2021/12/26 12:56:05;;;;;;;;;;;20.40;34.70;;;;;;4956008;29;19926;-60
2021/12/26 12:58:31;;;;;;;;;;;20.30;34.80;;;;;;4955811;28;19915;-61
2021/12/26 13:01:00;;;;;;;;;;;20.30;34.90;;;;;;4955186;29;20426;-61
2021/12/26 13:03:26;;;;;;;;;;;20.30;34.90;;;;;;4956077;28;19918;-62
2021/12/26 13:05:52;;;;;;;;;;;20.30;34.90;;;;;;4954549;28;19922;-62
2021/12/26 13:08:21;;;;;;;;;;;20.30;35.00;;;;;;4986630;28;19923;-61
2021/12/26 13:10:54;;;;;;;;;;;20.30;35.10;;;;;;4955155;28;19918;-62
2021/12/26 13:13:21;;;;;;;;;;;20.30;35.00;;;;;;4940943;28;19945;-61
2021/12/26 13:15:50;;;;;;;;;;;20.30;35.20;;;;;;4955543;28;19963;-61
2021/12/26 13:18:16;;;;;;;;;;;20.30;35.10;;;;;;4955903;28;20291;-61
2021/12/26 13:20:41;;;;;;;;;;;20.30;35.10;;;;;;4954689;29;19915;-62
2021/12/26 13:23:07;;;;;;;;;;;20.30;35.10;;;;;;4955361;29;20013;-61
2021/12/26 13:25:36;;;;;;;;;;;20.30;35.10;;;;;;4954903;29;20732;-61
2021/12/26 13:28:03;;;;;;;;;;;20.30;35.10;;;;;;4975675;28;19910;-60
2021/12/26 13:30:30;;;;;;;;;;;20.30;35.10;;;;;;4955352;28;19918;-61
2021/12/26 13:32:55;;;;;;;;;;;20.30;34.90;;;;;;4976954;28;19914;-61
2021/12/26 13:35:31;;;;;;;;;;;20.30;34.90;;;;;;4953828;29;20209;-61
2021/12/26 13:37:56;;;;;;;;;;;20.30;35.10;;;;;;4953031;29;19919;-61
2021/12/26 13:40:23;;;;;;;;;;;20.20;35.30;;;;;;4984657;28;19915;-60
2021/12/26 13:42:49;;;;;;;;;;;20.20;35.40;;;;;;4954328;29;20427;-61
2021/12/26 13:45:14;;;;;;;;;;;20.30;35.30;;;;;;4951652;28;19918;-61
2021/12/26 13:47:40;;;;;;;;;;;20.30;35.10;;;;;;4953302;28;19918;-60
2021/12/26 13:50:07;;;;;;;;;;;20.30;35.20;;;;;;4954098;28;19922;-60
2021/12/26 13:52:32;;;;;;;;;;;20.30;35.30;;;;;;4954486;28;19962;-61
2021/12/26 13:54:58;;;;;;;;;;;20.30;35.40;;;;;;4954316;29;19914;-61
2021/12/26 13:57:24;;;;;;;;;;;20.30;35.50;;;;;;4954276;29;20017;-60
2021/12/26 13:59:53;;;;;;;;;;;20.30;35.40;;;;;;4981000;28;19978;-61
2021/12/26 14:02:19;;;;;;;;;;;20.30;35.40;;;;;;4979992;28;19914;-61
2021/12/26 14:04:48;;;;;;;;;;;20.30;35.50;;;;;;4954097;28;20405;-60
2021/12/26 14:07:18;;;;;;;;;;;20.30;35.60;;;;;;4969608;28;19918;-60
2021/12/26 14:09:45;;;;;;;;;;;20.30;35.50;;;;;;4985560;28;20431;-61
2021/12/26 14:12:25;;;;;;;;;;;20.30;35.50;;;;;;4984974;28;19922;-60
2021/12/26 14:14:51;;;;;;;;;;;20.30;35.50;;;;;;4954133;29;19940;-61
2021/12/26 14:17:16;;;;;;;;;;;20.30;36.10;;;;;;4953640;29;20009;-60
2021/12/26 14:19:51;;;;;;;;;;;20.30;35.30;;;;;;4952928;29;19927;-61
2021/12/26 14:22:23;;;;;;;;;;;20.30;35.50;;;;;;4947026;29;19918;-60